Wetterdaten: aktuell Samstag, 02.11.2019 23:30
Datum Zeit Temp. I. Temp. A. Temp. 2 Feuchte I. Feuchte A. Luftdruck Regen Wind Richtung Richtung Taupunkt Windben
02.11.2019 23:30 19,3 C 13,7 C 12,7 C 72 % 55 % 993,3 hPa 0,0 l/m 0,0 km/h N 360 10,5 C 0,0 km/h
02.11.2019 23:25 19,3 C 13,7 C 12,7 C 72 % 55 % 993,3 hPa 0,0 l/m 0,0 km/h N 360 10,5 C 0,0 km/h
02.11.2019 23:20 19,3 C 13,7 C 12,7 C 72 % 55 % 994,2 hPa 0,0 l/m 0,0 km/h N 360 10,5 C 0,0 km/h
02.11.2019 23:15 19,3 C 13,7 C 12,7 C 72 % 55 % 994,2 hPa 0,0 l/m 0,0 km/h N 360 10,5 C 0,0 km/h
02.11.2019 23:10 19,2 C 13,7 C 12,7 C 72 % 55 % 994,2 hPa 0,0 l/m 0,0 km/h N 360 10,5 C 0,0 km/h
02.11.2019 23:05 19,3 C 13,7 C 12,7 C 72 % 55 % 994,2 hPa 0,0 l/m 0,0 km/h N 360 10,5 C 0,0 km/h
02.11.2019 23:00 19,2 C 13,7 C 12,7 C 72 % 55 % 994,3 hPa 0,0 l/m 0,0 km/h N 360 10,5 C 0,0 km/h
02.11.2019 22:55 19,2 C 13,7 C 12,7 C 72 % 55 % 994,3 hPa 0,0 l/m 0,0 km/h N 360 10,5 C 0,0 km/h
02.11.2019 22:50 19,2 C 13,6 C 12,7 C 72 % 54 % 994,3 hPa 0,0 l/m 0,0 km/h N 360 10,2 C 0,0 km/h
02.11.2019 22:45 19,2 C 13,6 C 12,7 C 72 % 54 % 994,3 hPa 0,0 l/m 0,0 km/h N 360 10,2 C 0,0 km/h
02.11.2019 22:40 19,2 C 13,7 C 12,7 C 72 % 55 % 994,6 hPa 0,0 l/m 0,0 km/h N 360 10,3 C 0,0 km/h
02.11.2019 22:35 19,2 C 13,7 C 12,8 C 72 % 55 % 994,6 hPa 0,0 l/m 0,0 km/h N 360 10,3 C 0,0 km/h
02.11.2019 22:30 19,2 C 13,8 C 12,8 C 72 % 55 % 994,6 hPa 0,0 l/m 0,0 km/h N 360 10,4 C 0,0 km/h
02.11.2019 22:25 19,3 C 13,8 C 12,9 C 72 % 55 % 994,6 hPa 0,0 l/m 0,0 km/h N 360 10,4 C 0,0 km/h
02.11.2019 22:20 19,3 C 13,9 C 12,8 C 72 % 55 % 994,8 hPa 0,0 l/m 0,0 km/h N 360 10,5 C 0,0 km/h
02.11.2019 22:15 19,2 C 13,8 C 12,8 C 72 % 55 % 994,8 hPa 0,0 l/m 0,0 km/h N 360 10,4 C 0,0 km/h
02.11.2019 22:10 19,2 C 13,8 C 12,8 C 72 % 55 % 994,8 hPa 0,0 l/m 0,0 km/h N 360 10,4 C 0,0 km/h
02.11.2019 22:05 19,2 C 13,9 C 12,9 C 72 % 55 % 994,8 hPa 0,0 l/m 0,0 km/h N 360 10,5 C 0,0 km/h
02.11.2019 22:00 19,3 C 13,9 C 12,9 C 72 % 55 % 994,8 hPa 0,0 l/m 0,0 km/h N 360 10,5 C 0,0 km/h
02.11.2019 21:55 19,3 C 14,0 C 13,1 C 72 % 55 % 994,8 hPa 0,0 l/m 0,0 km/h N 360 10,6 C 0,0 km/h
02.11.2019 21:50 19,3 C 14,0 C 13,0 C 72 % 55 % 994,8 hPa 0,0 l/m 0,0 km/h N 360 10,6 C 0,0 km/h
02.11.2019 21:45 19,3 C 14,1 C 13,1 C 72 % 55 % 994,8 hPa 0,0 l/m 0,0 km/h N 360 10,9 C 0,0 km/h
02.11.2019 21:40 19,3 C 14,3 C 13,2 C 72 % 56 % 994,7 hPa 0,0 l/m 0,0 km/h N 360 11,1 C 0,0 km/h
02.11.2019 21:35 19,3 C 14,2 C 13,3 C 72 % 56 % 994,7 hPa 0,0 l/m 0,0 km/h N 360 11,0 C 0,0 km/h
02.11.2019 21:30 19,3 C 14,3 C 13,2 C 72 % 56 % 994,7 hPa 0,0 l/m 0,0 km/h N 360 11,1 C 0,0 km/h
02.11.2019 21:25 19,3 C 14,4 C 13,3 C 72 % 56 % 994,7 hPa 0,0 l/m 0,0 km/h N 360 11,2 C 0,0 km/h
02.11.2019 21:20 19,3 C 14,5 C 13,3 C 72 % 56 % 995,1 hPa 0,0 l/m 0,0 km/h N 360 11,3 C 0,0 km/h
02.11.2019 21:15 19,3 C 14,5 C 13,3 C 72 % 56 % 995,1 hPa 0,0 l/m 0,0 km/h N 360 11,3 C 0,0 km/h
02.11.2019 21:10 19,3 C 14,5 C 13,4 C 72 % 56 % 995,1 hPa 0,0 l/m 0,0 km/h N 360 11,3 C 0,0 km/h
02.11.2019 21:05 19,3 C 14,5 C 13,5 C 72 % 56 % 995,1 hPa 0,0 l/m 0,0 km/h N 360 11,3 C 0,0 km/h
02.11.2019 21:00 19,3 C 14,6 C 13,4 C 72 % 56 % 995,4 hPa 0,0 l/m 0,0 km/h N 360 11,4 C 0,0 km/h
02.11.2019 20:55 19,3 C 14,8 C 13,5 C 72 % 57 % 995,4 hPa 0,2 l/m 0,0 km/h N 360 11,4 C 0,0 km/h
02.11.2019 20:50 19,3 C 14,8 C 13,6 C 72 % 57 % 995,4 hPa 0,2 l/m 0,0 km/h N 360 11,4 C 0,0 km/h
02.11.2019 20:45 19,2 C 14,8 C 13,5 C 72 % 57 % 995,4 hPa 0,0 l/m 0,0 km/h N 360 11,4 C 0,0 km/h
02.11.2019 20:40 19,3 C 14,9 C 13,5 C 72 % 57 % 994,9 hPa 0,0 l/m 0,0 km/h N 360 11,3 C 0,0 km/h
02.11.2019 20:35 19,3 C 14,8 C 13,5 C 72 % 57 % 994,9 hPa 0,0 l/m 0,0 km/h N 360 11,4 C 0,0 km/h
02.11.2019 20:30 19,3 C 14,9 C 13,5 C 72 % 57 % 994,9 hPa 0,0 l/m 0,0 km/h N 360 11,5 C 0,0 km/h
02.11.2019 20:25 19,3 C 14,9 C 13,5 C 72 % 57 % 994,9 hPa 0,0 l/m 0,0 km/h N 360 11,5 C 0,0 km/h
02.11.2019 20:20 19,2 C 14,8 C 13,5 C 72 % 57 % 995,1 hPa 0,0 l/m 0,0 km/h N 360 11,6 C 0,0 km/h
02.11.2019 20:15 19,3 C 14,8 C 13,5 C 72 % 57 % 995,1 hPa 0,0 l/m 0,0 km/h N 360 11,4 C 0,0 km/h
02.11.2019 20:10 19,2 C 14,9 C 13,5 C 72 % 57 % 995,1 hPa 0,0 l/m 0,0 km/h N 360 11,9 C 0,0 km/h
02.11.2019 20:05 19,2 C 15,0 C 13,6 C 72 % 57 % 995,1 hPa 0,0 l/m 0,0 km/h N 360 12,0 C 0,0 km/h
02.11.2019 20:00 19,2 C 15,0 C 13,6 C 72 % 57 % 995,4 hPa 0,0 l/m 0,0 km/h N 360 11,8 C 0,0 km/h
02.11.2019 19:55 19,2 C 15,1 C 13,6 C 72 % 57 % 995,4 hPa 0,0 l/m 0,0 km/h N 360 12,0 C 0,0 km/h
02.11.2019 19:50 19,2 C 15,1 C 13,6 C 72 % 57 % 995,4 hPa 0,0 l/m 0,0 km/h N 360 11,9 C 0,0 km/h
02.11.2019 19:45 19,2 C 15,2 C 13,7 C 72 % 57 % 995,4 hPa 0,0 l/m 0,0 km/h N 360 11,8 C 0,0 km/h
02.11.2019 19:40 19,2 C 15,2 C 13,7 C 72 % 57 % 995,8 hPa 0,0 l/m 0,0 km/h N 360 11,8 C 0,0 km/h
02.11.2019 19:35 19,2 C 15,3 C 13,8 C 72 % 57 % 995,8 hPa 0,0 l/m 0,0 km/h N 360 12,1 C 0,0 km/h
02.11.2019 19:30 19,2 C 15,3 C 13,9 C 72 % 57 % 995,8 hPa 0,0 l/m 0,0 km/h N 360 12,1 C 0,0 km/h
02.11.2019 19:25 19,2 C 15,3 C 13,9 C 72 % 57 % 995,8 hPa 0,0 l/m 0,0 km/h N 360 11,9 C 0,0 km/h
02.11.2019 19:20 19,2 C 15,3 C 13,9 C 72 % 57 % 996,0 hPa 0,0 l/m 0,0 km/h N 360 11,9 C 0,0 km/h
02.11.2019 19:15 19,2 C 15,3 C 13,8 C 72 % 57 % 996,0 hPa 0,0 l/m 0,0 km/h N 360 11,9 C 0,0 km/h
02.11.2019 19:10 19,2 C 15,3 C 13,9 C 72 % 57 % 996,0 hPa 0,0 l/m 0,0 km/h N 360 11,9 C 0,0 km/h
02.11.2019 19:05 19,2 C 15,3 C 13,9 C 72 % 57 % 996,0 hPa 0,0 l/m 0,0 km/h N 360 11,9 C 0,0 km/h
02.11.2019 19:00 19,2 C 15,3 C 13,9 C 72 % 57 % 996,2 hPa 0,0 l/m 0,0 km/h N 360 12,1 C 0,0 km/h
02.11.2019 18:55 19,2 C 15,3 C 13,9 C 72 % 57 % 996,2 hPa 0,0 l/m 0,0 km/h N 360 11,9 C 0,0 km/h
02.11.2019 18:50 19,2 C 15,3 C 13,9 C 72 % 57 % 996,2 hPa 0,0 l/m 0,0 km/h N 360 11,9 C 0,0 km/h
02.11.2019 18:45 19,2 C 15,3 C 14,0 C 72 % 57 % 996,2 hPa 0,0 l/m 0,0 km/h N 360 12,1 C 0,0 km/h
02.11.2019 18:40 19,2 C 15,5 C 14,0 C 72 % 58 % 995,9 hPa 0,0 l/m 0,0 km/h N 360 12,3 C 0,0 km/h
02.11.2019 18:35 19,2 C 15,5 C 14,0 C 72 % 58 % 995,9 hPa 0,0 l/m 0,0 km/h N 360 12,1 C 0,0 km/h
02.11.2019 18:30 19,2 C 15,5 C 14,1 C 72 % 58 % 995,9 hPa 0,0 l/m 0,0 km/h N 360 12,1 C 0,0 km/h
02.11.2019 18:25 19,3 C 15,6 C 14,0 C 72 % 58 % 995,9 hPa 0,0 l/m 0,0 km/h N 360 12,3 C 0,0 km/h
02.11.2019 18:20 19,3 C 15,6 C 14,1 C 72 % 58 % 996,0 hPa 0,0 l/m 0,0 km/h N 360 12,5 C 0,0 km/h
02.11.2019 18:15 19,3 C 15,7 C 14,1 C 72 % 58 % 996,0 hPa 0,0 l/m 0,0 km/h N 360 12,4 C 0,0 km/h
02.11.2019 18:10 19,3 C 15,8 C 14,1 C 72 % 58 % 996,0 hPa 0,0 l/m 0,0 km/h N 360 12,7 C 0,0 km/h
02.11.2019 18:05 19,2 C 15,9 C 14,2 C 72 % 58 % 996,0 hPa 0,0 l/m 0,0 km/h N 360 12,8 C 0,0 km/h
02.11.2019 18:00 19,2 C 15,9 C 14,3 C 72 % 58 % 995,9 hPa 0,0 l/m 0,0 km/h N 360 12,6 C 0,0 km/h
02.11.2019 17:55 19,2 C 16,0 C 14,2 C 72 % 59 % 995,9 hPa 0,0 l/m 0,0 km/h N 360 13,1 C 0,0 km/h
02.11.2019 17:50 19,2 C 16,1 C 14,3 C 72 % 59 % 995,9 hPa 0,0 l/m 0,0 km/h N 360 13,2 C 0,0 km/h
02.11.2019 17:45 19,2 C 16,1 C 14,3 C 72 % 59 % 995,9 hPa 0,0 l/m 0,0 km/h N 360 13,2 C 0,0 km/h
02.11.2019 17:40 19,2 C 16,2 C 14,4 C 72 % 59 % 996,0 hPa 0,0 l/m 0,0 km/h N 360 13,3 C 0,0 km/h
02.11.2019 17:35 19,2 C 16,3 C 14,5 C 72 % 59 % 996,0 hPa 0,0 l/m 0,0 km/h N 360 13,4 C 0,0 km/h
02.11.2019 17:30 19,2 C 16,4 C 14,5 C 72 % 59 % 996,0 hPa 0,0 l/m 0,0 km/h N 360 13,5 C 0,0 km/h
02.11.2019 17:25 19,2 C 16,5 C 14,7 C 72 % 59 % 996,0 hPa 0,0 l/m 0,0 km/h N 360 13,4 C 0,0 km/h
02.11.2019 17:20 19,2 C 16,6 C 14,7 C 72 % 60 % 996,2 hPa 0,0 l/m 0,0 km/h N 360 13,5 C 0,0 km/h
02.11.2019 17:15 19,3 C 16,8 C 14,8 C 72 % 60 % 996,2 hPa 0,0 l/m 0,0 km/h N 360 13,7 C 0,0 km/h
02.11.2019 17:10 19,3 C 16,9 C 14,8 C 72 % 60 % 996,2 hPa 0,0 l/m 0,0 km/h N 360 13,8 C 0,0 km/h
02.11.2019 17:05 19,2 C 16,9 C 14,9 C 72 % 60 % 996,2 hPa 0,0 l/m 0,0 km/h N 360 13,8 C 0,0 km/h
02.11.2019 17:00 19,2 C 17,1 C 15,1 C 72 % 61 % 996,1 hPa 0,0 l/m 0,0 km/h N 360 13,8 C 0,0 km/h
02.11.2019 16:55 19,2 C 17,1 C 15,0 C 72 % 61 % 996,1 hPa 0,0 l/m 0,0 km/h N 360 13,6 C 0,0 km/h
02.11.2019 16:50 19,3 C 17,2 C 15,2 C 72 % 61 % 996,1 hPa 0,0 l/m 0,0 km/h N 360 13,5 C 0,0 km/h
02.11.2019 16:45 19,2 C 17,2 C 15,2 C 72 % 61 % 996,1 hPa 0,0 l/m 0,0 km/h N 360 13,1 C 0,0 km/h
02.11.2019 16:40 19,3 C 17,5 C 15,3 C 72 % 61 % 995,9 hPa 0,0 l/m 0,0 km/h N 360 13,4 C 0,0 km/h
02.11.2019 16:35 19,3 C 17,5 C 15,3 C 72 % 61 % 995,9 hPa 0,0 l/m 0,0 km/h N 360 13,2 C 0,0 km/h
02.11.2019 16:30 19,2 C 17,6 C 15,3 C 72 % 61 % 995,9 hPa 0,0 l/m 0,0 km/h N 360 13,3 C 0,0 km/h
02.11.2019 16:25 19,2 C 17,5 C 15,3 C 72 % 61 % 995,9 hPa 0,0 l/m 0,0 km/h N 360 12,8 C 0,0 km/h
02.11.2019 16:20 19,2 C 17,6 C 15,3 C 72 % 61 % 995,8 hPa 0,0 l/m 0,0 km/h N 360 13,9 C 0,0 km/h
02.11.2019 16:15 19,2 C 17,7 C 15,3 C 72 % 62 % 995,8 hPa 0,0 l/m 0,0 km/h N 360 14,0 C 0,0 km/h
02.11.2019 16:10 19,2 C 17,6 C 15,3 C 72 % 61 % 995,8 hPa 0,0 l/m 0,0 km/h N 360 13,7 C 0,0 km/h
02.11.2019 16:05 19,1 C 17,7 C 15,3 C 72 % 62 % 995,8 hPa 0,0 l/m 0,0 km/h N 360 14,0 C 0,0 km/h
02.11.2019 16:00 19,1 C 17,8 C 15,3 C 72 % 62 % 995,9 hPa 0,0 l/m 0,0 km/h N 360 14,5 C 0,0 km/h
02.11.2019 15:55 19,1 C 17,9 C 15,4 C 72 % 62 % 995,9 hPa 0,0 l/m 0,0 km/h N 360 14,6 C 0,0 km/h
02.11.2019 15:50 19,1 C 18,0 C 15,6 C 72 % 62 % 995,9 hPa 0,0 l/m 0,0 km/h N 360 14,5 C 0,0 km/h
02.11.2019 15:45 19,1 C 18,1 C 15,6 C 72 % 62 % 995,9 hPa 0,0 l/m 0,0 km/h N 360 14,6 C 0,0 km/h
02.11.2019 15:40 19,1 C 18,3 C 15,7 C 72 % 63 % 995,9 hPa 0,0 l/m 0,0 km/h N 360 14,8 C 0,0 km/h
02.11.2019 15:35 19,1 C 18,2 C 15,9 C 72 % 62 % 995,9 hPa 0,0 l/m 0,0 km/h N 360 14,5 C 0,0 km/h
02.11.2019 15:30 19,1 C 18,3 C 16,7 C 72 % 63 % 995,9 hPa 0,0 l/m 0,0 km/h N 360 14,4 C 0,0 km/h
02.11.2019 15:25 19,1 C 18,4 C 16,7 C 72 % 63 % 995,9 hPa 0,0 l/m 0,0 km/h N 360 14,5 C 0,0 km/h
02.11.2019 15:20 19,1 C 18,4 C 16,7 C 72 % 63 % 996,1 hPa 0,0 l/m 0,0 km/h N 360 14,5 C 0,0 km/h
02.11.2019 15:15 19,1 C 18,4 C 16,7 C 72 % 63 % 996,1 hPa 0,0 l/m 0,0 km/h N 360 14,5 C 0,0 km/h
02.11.2019 15:10 19,1 C 18,5 C 16,7 C 72 % 63 % 996,1 hPa 0,0 l/m 0,0 km/h N 360 13,8 C 0,0 km/h
02.11.2019 15:05 19,1 C 18,5 C 16,7 C 72 % 63 % 996,1 hPa 0,0 l/m 0,0 km/h N 360 14,4 C 0,0 km/h
02.11.2019 15:00 19,1 C 18,5 C 16,7 C 72 % 63 % 996,1 hPa 0,0 l/m 0,0 km/h N 360 14,4 C 0,0 km/h
02.11.2019 14:55 19,1 C 18,6 C 16,7 C 72 % 63 % 996,1 hPa 0,0 l/m 0,0 km/h N 360 14,3 C 0,0 km/h
02.11.2019 14:50 19,1 C 18,7 C 16,7 C 72 % 63 % 996,1 hPa 0,0 l/m 0,0 km/h N 360 14,2 C 0,0 km/h
02.11.2019 14:45 19,1 C 18,7 C 16,7 C 72 % 63 % 996,1 hPa 0,0 l/m 0,0 km/h N 360 14,6 C 0,0 km/h
02.11.2019 14:40 19,1 C 18,7 C 16,7 C 72 % 63 % 996,2 hPa 0,0 l/m 0,0 km/h N 360 15,4 C 0,0 km/h
02.11.2019 14:35 19,0 C 18,7 C 16,7 C 71 % 63 % 996,2 hPa 0,0 l/m 0,0 km/h N 360 15,2 C 0,0 km/h
02.11.2019 14:30 19,1 C 18,8 C 16,7 C 72 % 63 % 996,2 hPa 0,0 l/m 0,0 km/h N 360 15,3 C 0,0 km/h
02.11.2019 14:25 19,1 C 18,7 C 16,7 C 72 % 63 % 996,2 hPa 0,0 l/m 0,0 km/h N 360 15,2 C 0,0 km/h
02.11.2019 14:20 19,1 C 18,7 C 16,7 C 72 % 63 % 996,4 hPa 0,0 l/m 0,0 km/h N 360 15,2 C 0,0 km/h
02.11.2019 14:15 19,1 C 18,8 C 16,7 C 72 % 63 % 996,4 hPa 0,0 l/m 0,0 km/h N 360 15,3 C 0,0 km/h
02.11.2019 14:10 19,1 C 18,9 C 16,7 C 72 % 64 % 996,4 hPa 0,0 l/m 0,0 km/h N 360 14,6 C 0,0 km/h
02.11.2019 14:05 19,1 C 18,8 C 16,7 C 72 % 63 % 996,4 hPa 0,0 l/m 0,0 km/h N 360 14,5 C 0,0 km/h
02.11.2019 14:00 19,1 C 18,9 C 16,7 C 72 % 64 % 996,6 hPa 0,0 l/m 0,0 km/h N 360 14,6 C 0,0 km/h
02.11.2019 13:55 19,1 C 19,0 C 16,7 C 72 % 64 % 996,6 hPa 0,0 l/m 0,0 km/h N 360 15,3 C 0,0 km/h
02.11.2019 13:50 19,1 C 19,1 C 16,7 C 72 % 64 % 996,6 hPa 0,0 l/m 0,0 km/h N 360 15,2 C 0,0 km/h
02.11.2019 13:45 19,1 C 19,0 C 16,7 C 72 % 64 % 996,6 hPa 0,0 l/m 0,0 km/h N 360 15,1 C 0,0 km/h
02.11.2019 13:40 19,0 C 19,0 C 16,7 C 71 % 64 % 996,6 hPa 0,0 l/m 0,0 km/h N 360 14,9 C 0,0 km/h
02.11.2019 13:35 19,0 C 19,1 C 16,7 C 71 % 64 % 996,6 hPa 0,0 l/m 0,0 km/h N 360 14,8 C 0,0 km/h
02.11.2019 13:30 19,0 C 19,0 C 16,7 C 71 % 64 % 996,6 hPa 0,0 l/m 0,0 km/h N 360 15,5 C 0,0 km/h
02.11.2019 13:27 19,0 C 19,0 C 16,7 C 71 % 64 % 996,6 hPa 0,0 l/m 0,0 km/h N 360 15,5 C 0,0 km/h
02.11.2019 13:25 19,0 C 19,0 C 16,7 C 71 % 64 % 996,6 hPa 0,0 l/m 0,0 km/h N 360 15,5 C 0,0 km/h
02.11.2019 13:20 19,0 C 19,0 C 16,7 C 71 % 64 % 996,6 hPa 0,0 l/m 0,0 km/h N 360 14,9 C 0,0 km/h
02.11.2019 13:15 19,0 C 18,9 C 16,7 C 71 % 64 % 996,7 hPa 0,0 l/m 0,0 km/h N 360 15,8 C 0,0 km/h
02.11.2019 13:10 18,9 C 18,8 C 16,6 C 71 % 63 % 996,7 hPa 0,0 l/m 0,0 km/h N 360 16,0 C 0,0 km/h
02.11.2019 13:05 18,9 C 18,7 C 16,4 C 71 % 63 % 996,7 hPa 0,0 l/m 0,0 km/h N 360 15,6 C 0,0 km/h
02.11.2019 13:00 18,8 C 18,7 C 16,4 C 71 % 63 % 996,7 hPa 0,0 l/m 0,0 km/h N 360 16,1 C 0,0 km/h
02.11.2019 12:55 18,8 C 18,5 C 16,4 C 71 % 63 % 996,7 hPa 0,0 l/m 0,0 km/h N 360 15,2 C 0,0 km/h
02.11.2019 12:50 18,8 C 18,4 C 16,4 C 71 % 63 % 996,7 hPa 0,0 l/m 0,0 km/h N 360 16,0 C 0,0 km/h
02.11.2019 12:45 18,8 C 18,3 C 16,3 C 71 % 63 % 996,7 hPa 0,0 l/m 0,0 km/h N 360 15,5 C 0,0 km/h
02.11.2019 12:40 18,7 C 18,0 C 16,3 C 71 % 62 % 996,7 hPa 0,0 l/m 0,0 km/h N 360 16,0 C 0,0 km/h
02.11.2019 12:35 18,7 C 17,9 C 16,0 C 71 % 62 % 996,9 hPa 0,0 l/m 0,0 km/h N 360 16,2 C 0,0 km/h
02.11.2019 12:30 18,6 C 17,8 C 15,9 C 71 % 62 % 996,9 hPa 0,0 l/m 0,0 km/h N 360 16,1 C 0,0 km/h
02.11.2019 12:25 18,6 C 17,5 C 15,6 C 71 % 61 % 996,9 hPa 0,0 l/m 0,0 km/h N 360 15,1 C 0,0 km/h
02.11.2019 12:20 18,6 C 17,5 C 15,6 C 71 % 61 % 996,9 hPa 0,0 l/m 0,0 km/h N 360 16,0 C 0,0 km/h
02.11.2019 12:15 18,6 C 17,5 C 15,6 C 72 % 61 % 997,0 hPa 0,0 l/m 0,0 km/h N 360 16,0 C 0,0 km/h
02.11.2019 12:10 18,6 C 17,3 C 15,5 C 72 % 61 % 997,0 hPa 0,0 l/m 0,0 km/h N 360 15,8 C 0,0 km/h
02.11.2019 12:05 18,5 C 17,2 C 15,3 C 72 % 61 % 997,0 hPa 0,0 l/m 0,0 km/h N 360 15,5 C 0,0 km/h
02.11.2019 12:00 18,5 C 17,1 C 15,3 C 72 % 61 % 997,0 hPa 0,0 l/m 0,0 km/h N 360 15,6 C 0,0 km/h
02.11.2019 11:55 18,5 C 16,8 C 15,3 C 72 % 60 % 997,2 hPa 0,0 l/m 0,0 km/h N 360 15,3 C 0,0 km/h
02.11.2019 11:50 18,5 C 16,8 C 15,2 C 72 % 60 % 997,2 hPa 0,0 l/m 0,0 km/h N 360 15,1 C 0,0 km/h
02.11.2019 11:45 18,4 C 16,8 C 15,3 C 72 % 60 % 997,2 hPa 0,0 l/m 0,0 km/h N 360 15,1 C 0,0 km/h
02.11.2019 11:40 18,4 C 16,8 C 15,3 C 72 % 60 % 997,2 hPa 0,0 l/m 0,0 km/h N 360 15,3 C 0,0 km/h
02.11.2019 11:35 18,4 C 16,8 C 15,3 C 72 % 60 % 997,1 hPa 0,0 l/m 0,0 km/h N 360 15,1 C 0,0 km/h
02.11.2019 11:30 18,4 C 16,7 C 15,2 C 72 % 60 % 997,1 hPa 0,0 l/m 0,0 km/h N 360 15,0 C 0,0 km/h
02.11.2019 11:25 18,4 C 16,5 C 15,1 C 72 % 59 % 997,1 hPa 0,0 l/m 0,0 km/h N 360 14,9 C 0,0 km/h
02.11.2019 11:20 18,4 C 16,5 C 15,1 C 72 % 59 % 997,1 hPa 0,0 l/m 0,0 km/h N 360 15,0 C 0,0 km/h
02.11.2019 11:15 18,4 C 16,4 C 15,1 C 72 % 59 % 997,3 hPa 0,0 l/m 0,0 km/h N 360 14,9 C 0,0 km/h
02.11.2019 11:10 18,4 C 16,4 C 15,1 C 72 % 59 % 997,3 hPa 0,0 l/m 0,0 km/h N 360 14,9 C 0,0 km/h
02.11.2019 11:05 18,4 C 16,3 C 15,0 C 73 % 59 % 997,3 hPa 0,0 l/m 0,0 km/h N 360 14,8 C 0,0 km/h
02.11.2019 11:00 18,2 C 16,1 C 14,9 C 73 % 59 % 997,3 hPa 0,0 l/m 0,0 km/h N 360 14,5 C 0,0 km/h
02.11.2019 10:55 18,3 C 16,0 C 14,6 C 72 % 59 % 997,1 hPa 0,0 l/m 0,0 km/h N 360 14,5 C 0,0 km/h
02.11.2019 10:50 18,3 C 15,8 C 14,5 C 73 % 58 % 997,1 hPa 0,0 l/m 0,0 km/h N 360 14,3 C 0,0 km/h
02.11.2019 10:45 18,3 C 15,6 C 14,4 C 73 % 58 % 997,1 hPa 0,0 l/m 0,0 km/h N 360 14,3 C 0,0 km/h
02.11.2019 10:40 18,3 C 15,7 C 14,4 C 72 % 58 % 997,1 hPa 0,0 l/m 0,0 km/h N 360 14,4 C 0,0 km/h
02.11.2019 10:35 18,2 C 15,3 C 14,3 C 72 % 57 % 997,2 hPa 0,0 l/m 0,0 km/h N 360 14,0 C 0,0 km/h
02.11.2019 10:30 18,2 C 15,3 C 14,2 C 73 % 57 % 997,2 hPa 0,0 l/m 0,0 km/h N 360 14,0 C 0,0 km/h
02.11.2019 10:25 18,2 C 15,1 C 14,0 C 73 % 57 % 997,2 hPa 0,0 l/m 0,0 km/h N 360 13,8 C 0,0 km/h
02.11.2019 10:20 18,2 C 15,1 C 13,9 C 72 % 57 % 997,2 hPa 0,0 l/m 0,0 km/h N 360 13,8 C 0,0 km/h
02.11.2019 10:15 18,2 C 14,8 C 13,6 C 72 % 57 % 997,1 hPa 0,0 l/m 0,0 km/h N 360 13,5 C 0,0 km/h
02.11.2019 10:10 18,1 C 14,7 C 13,7 C 71 % 56 % 997,1 hPa 0,0 l/m 0,0 km/h N 360 13,4 C 0,0 km/h
02.11.2019 10:05 18,1 C 14,7 C 13,5 C 71 % 56 % 997,1 hPa 0,0 l/m 0,0 km/h N 360 13,4 C 0,0 km/h
02.11.2019 10:00 18,1 C 14,5 C 13,5 C 71 % 56 % 997,1 hPa 0,0 l/m 0,0 km/h N 360 13,2 C 0,0 km/h
02.11.2019 09:55 18,1 C 14,5 C 13,4 C 71 % 56 % 997,1 hPa 0,0 l/m 0,0 km/h N 360 13,2 C 0,0 km/h
02.11.2019 09:50 18,1 C 14,5 C 13,4 C 71 % 56 % 997,1 hPa 0,0 l/m 0,0 km/h N 360 13,2 C 0,0 km/h
02.11.2019 09:45 18,1 C 14,4 C 13,3 C 71 % 56 % 997,1 hPa 0,0 l/m 0,0 km/h N 360 13,1 C 0,0 km/h
02.11.2019 09:40 18,1 C 14,2 C 13,3 C 71 % 56 % 997,1 hPa 0,0 l/m 0,0 km/h N 360 12,9 C 0,0 km/h
02.11.2019 09:35 18,1 C 14,1 C 13,2 C 71 % 55 % 997,2 hPa 0,0 l/m 0,0 km/h N 360 12,8 C 0,0 km/h
02.11.2019 09:30 18,1 C 14,1 C 13,1 C 71 % 55 % 997,2 hPa 0,0 l/m 0,0 km/h N 360 12,8 C 0,0 km/h
02.11.2019 09:25 18,1 C 14,0 C 13,1 C 71 % 55 % 997,2 hPa 0,0 l/m 0,0 km/h N 360 12,7 C 0,0 km/h
02.11.2019 09:20 18,1 C 13,9 C 13,0 C 71 % 55 % 997,2 hPa 0,0 l/m 0,0 km/h N 360 12,6 C 0,0 km/h
02.11.2019 09:15 18,1 C 13,8 C 12,8 C 71 % 55 % 997,0 hPa 0,0 l/m 0,0 km/h N 360 12,5 C 0,0 km/h
02.11.2019 09:10 18,1 C 13,8 C 12,8 C 71 % 55 % 997,0 hPa 0,0 l/m 0,0 km/h N 360 12,5 C 0,0 km/h
02.11.2019 09:05 18,1 C 13,7 C 12,7 C 71 % 55 % 997,0 hPa 0,0 l/m 0,0 km/h N 360 12,4 C 0,0 km/h
02.11.2019 09:00 18,1 C 13,6 C 12,7 C 71 % 54 % 997,0 hPa 0,0 l/m 0,0 km/h N 360 12,3 C 0,0 km/h
02.11.2019 08:55 18,1 C 13,6 C 12,7 C 71 % 54 % 997,0 hPa 0,0 l/m 0,0 km/h N 360 12,3 C 0,0 km/h
02.11.2019 08:50 18,1 C 13,5 C 12,7 C 71 % 54 % 997,0 hPa 0,0 l/m 0,0 km/h N 360 12,2 C 0,0 km/h
02.11.2019 08:45 18,1 C 13,5 C 12,5 C 71 % 54 % 997,0 hPa 0,0 l/m 0,0 km/h N 360 12,2 C 0,0 km/h
02.11.2019 08:40 18,1 C 13,4 C 12,5 C 71 % 54 % 997,0 hPa 0,0 l/m 0,0 km/h N 360 12,1 C 0,0 km/h
02.11.2019 08:35 18,1 C 13,5 C 12,4 C 71 % 54 % 997,0 hPa 0,0 l/m 0,0 km/h N 360 12,2 C 0,0 km/h
02.11.2019 08:30 18,1 C 13,3 C 12,4 C 71 % 54 % 997,0 hPa 0,0 l/m 0,0 km/h N 360 12,0 C 0,0 km/h
02.11.2019 08:25 18,1 C 13,4 C 12,4 C 70 % 54 % 997,0 hPa 0,0 l/m 0,0 km/h N 360 12,1 C 0,0 km/h
02.11.2019 08:20 18,1 C 13,4 C 12,4 C 70 % 54 % 997,0 hPa 0,0 l/m 0,0 km/h N 360 12,1 C 0,0 km/h
02.11.2019 08:15 18,1 C 13,3 C 12,3 C 70 % 54 % 997,1 hPa 0,0 l/m 0,0 km/h N 360 12,0 C 0,0 km/h
02.11.2019 08:10 18,1 C 13,2 C 12,3 C 70 % 54 % 997,1 hPa 0,0 l/m 0,0 km/h N 360 11,9 C 0,0 km/h
02.11.2019 08:05 18,1 C 13,2 C 12,3 C 70 % 54 % 997,1 hPa 0,0 l/m 0,0 km/h N 360 11,9 C 0,0 km/h
02.11.2019 08:00 18,0 C 13,3 C 12,2 C 70 % 54 % 997,1 hPa 0,0 l/m 0,0 km/h N 360 12,0 C 0,0 km/h
02.11.2019 07:55 18,0 C 13,3 C 12,3 C 70 % 54 % 997,0 hPa 0,0 l/m 0,0 km/h N 360 12,0 C 0,0 km/h
02.11.2019 07:50 18,0 C 13,2 C 12,3 C 70 % 54 % 997,0 hPa 0,0 l/m 0,0 km/h N 360 11,9 C 0,0 km/h
02.11.2019 07:45 18,0 C 13,2 C 12,3 C 70 % 54 % 997,0 hPa 0,0 l/m 0,0 km/h N 360 11,9 C 0,0 km/h
02.11.2019 07:40 18,1 C 13,1 C 12,3 C 70 % 54 % 997,0 hPa 0,0 l/m 0,0 km/h N 360 11,8 C 0,0 km/h
02.11.2019 07:35 18,0 C 13,1 C 12,2 C 70 % 54 % 996,8 hPa 0,0 l/m 0,0 km/h N 360 11,8 C 0,0 km/h
02.11.2019 07:30 18,1 C 13,1 C 12,2 C 70 % 54 % 996,8 hPa 0,0 l/m 0,0 km/h N 360 11,8 C 0,0 km/h
02.11.2019 07:25 18,1 C 13,0 C 12,0 C 70 % 53 % 996,8 hPa 0,0 l/m 0,0 km/h N 360 11,7 C 0,0 km/h
02.11.2019 07:20 18,1 C 13,0 C 12,1 C 70 % 53 % 996,8 hPa 0,0 l/m 0,0 km/h N 360 11,7 C 0,0 km/h
02.11.2019 07:15 18,1 C 13,1 C 12,1 C 70 % 54 % 997,1 hPa 0,0 l/m 0,0 km/h N 360 11,8 C 0,0 km/h
02.11.2019 07:10 18,1 C 13,0 C 12,0 C 70 % 53 % 997,1 hPa 0,0 l/m 0,0 km/h N 360 11,7 C 0,0 km/h
02.11.2019 07:05 18,1 C 12,9 C 12,0 C 70 % 53 % 997,1 hPa 0,0 l/m 0,0 km/h N 360 11,6 C 0,0 km/h
02.11.2019 07:00 18,1 C 12,9 C 12,1 C 70 % 53 % 997,1 hPa 0,0 l/m 0,0 km/h N 360 11,6 C 0,0 km/h
02.11.2019 06:55 18,1 C 12,9 C 12,0 C 70 % 53 % 997,1 hPa 0,2 l/m 0,0 km/h N 360 11,6 C 0,0 km/h
02.11.2019 06:50 18,1 C 12,8 C 11,9 C 70 % 53 % 997,1 hPa 0,0 l/m 0,0 km/h N 360 11,5 C 0,0 km/h
02.11.2019 06:45 18,1 C 12,8 C 11,9 C 70 % 53 % 997,1 hPa 0,0 l/m 0,0 km/h N 360 11,5 C 0,0 km/h
02.11.2019 06:40 18,1 C 12,9 C 12,0 C 70 % 53 % 997,1 hPa 0,0 l/m 0,0 km/h N 360 11,6 C 0,0 km/h
02.11.2019 06:35 18,1 C 12,8 C 12,0 C 70 % 53 % 997,6 hPa 0,0 l/m 0,0 km/h N 360 11,5 C 0,0 km/h
02.11.2019 06:30 18,1 C 12,8 C 12,0 C 70 % 53 % 997,6 hPa 0,0 l/m 0,0 km/h N 360 11,5 C 0,0 km/h
02.11.2019 06:25 18,1 C 12,8 C 12,0 C 70 % 53 % 997,6 hPa 0,0 l/m 0,0 km/h N 360 11,5 C 0,0 km/h
02.11.2019 06:20 18,1 C 12,8 C 12,1 C 70 % 53 % 997,6 hPa 0,0 l/m 0,0 km/h N 360 11,5 C 0,0 km/h
02.11.2019 06:15 18,1 C 12,8 C 12,1 C 70 % 53 % 997,6 hPa 0,0 l/m 0,0 km/h N 360 11,5 C 0,0 km/h
02.11.2019 06:10 18,1 C 12,8 C 12,1 C 70 % 53 % 997,6 hPa 0,0 l/m 0,0 km/h N 360 11,5 C 0,0 km/h
02.11.2019 06:05 18,1 C 12,8 C 12,1 C 70 % 53 % 997,6 hPa 0,0 l/m 0,0 km/h N 360 11,7 C 0,0 km/h
02.11.2019 06:00 18,2 C 12,8 C 12,1 C 70 % 53 % 997,6 hPa 0,0 l/m 0,0 km/h N 360 11,7 C 0,0 km/h
02.11.2019 05:55 18,2 C 12,8 C 12,0 C 70 % 53 % 997,7 hPa 0,0 l/m 0,0 km/h N 360 11,7 C 0,0 km/h
02.11.2019 05:50 18,2 C 12,8 C 12,0 C 70 % 53 % 997,7 hPa 0,0 l/m 0,0 km/h N 360 11,7 C 0,0 km/h
02.11.2019 05:45 18,2 C 12,8 C 12,0 C 70 % 53 % 997,7 hPa 0,0 l/m 0,0 km/h N 360 11,7 C 0,0 km/h
02.11.2019 05:40 18,2 C 12,8 C 12,0 C 70 % 53 % 997,7 hPa 0,0 l/m 0,0 km/h N 360 11,7 C 0,0 km/h
02.11.2019 05:35 18,2 C 12,8 C 12,1 C 70 % 53 % 998,1 hPa 0,0 l/m 0,0 km/h N 360 11,7 C 0,0 km/h
02.11.2019 05:30 18,2 C 12,9 C 12,0 C 70 % 53 % 998,1 hPa 0,0 l/m 0,0 km/h N 360 11,8 C 0,0 km/h
02.11.2019 05:25 18,2 C 12,9 C 12,0 C 70 % 53 % 998,1 hPa 0,0 l/m 0,0 km/h N 360 11,8 C 0,0 km/h
02.11.2019 05:20 18,2 C 12,8 C 11,9 C 70 % 53 % 998,1 hPa 0,0 l/m 0,0 km/h N 360 11,7 C 0,0 km/h
02.11.2019 05:15 18,2 C 12,7 C 11,8 C 70 % 53 % 998,0 hPa 0,2 l/m 0,0 km/h N 360 11,6 C 0,0 km/h
02.11.2019 05:10 18,2 C 12,7 C 11,9 C 70 % 53 % 998,0 hPa 0,2 l/m 0,0 km/h N 360 11,6 C 0,0 km/h
02.11.2019 05:05 18,2 C 12,5 C 11,7 C 70 % 53 % 998,0 hPa 0,0 l/m 0,0 km/h N 360 11,4 C 0,0 km/h
02.11.2019 05:00 18,2 C 12,4 C 11,7 C 70 % 52 % 998,0 hPa 0,0 l/m 0,0 km/h N 360 11,3 C 0,0 km/h
02.11.2019 04:55 18,2 C 12,4 C 11,6 C 70 % 52 % 998,1 hPa 0,0 l/m 0,0 km/h N 360 11,3 C 0,0 km/h
02.11.2019 04:50 18,2 C 12,3 C 11,6 C 70 % 52 % 998,1 hPa 0,0 l/m 0,0 km/h N 360 11,2 C 0,0 km/h
02.11.2019 04:45 18,2 C 12,3 C 11,5 C 70 % 52 % 998,1 hPa 0,0 l/m 0,0 km/h N 360 11,2 C 0,0 km/h
02.11.2019 04:40 18,2 C 12,2 C 11,5 C 70 % 52 % 998,1 hPa 0,0 l/m 0,0 km/h N 360 10,9 C 0,0 km/h
02.11.2019 04:35 18,3 C 12,1 C 11,4 C 70 % 52 % 998,1 hPa 0,0 l/m 0,0 km/h N 360 10,8 C 0,0 km/h
02.11.2019 04:30 18,3 C 12,1 C 11,4 C 70 % 52 % 998,1 hPa 0,0 l/m 0,0 km/h N 360 10,8 C 0,0 km/h
02.11.2019 04:25 18,3 C 12,0 C 11,3 C 70 % 52 % 998,1 hPa 0,0 l/m 0,0 km/h N 360 10,7 C 0,0 km/h
02.11.2019 04:20 18,3 C 12,0 C 11,3 C 70 % 52 % 998,1 hPa 0,0 l/m 0,0 km/h N 360 10,7 C 0,0 km/h
02.11.2019 04:15 18,3 C 12,1 C 11,3 C 70 % 52 % 998,4 hPa 0,0 l/m 0,0 km/h N 360 10,8 C 0,0 km/h
02.11.2019 04:10 18,3 C 12,1 C 11,3 C 70 % 52 % 998,4 hPa 0,0 l/m 0,0 km/h N 360 10,8 C 0,0 km/h
02.11.2019 04:05 18,3 C 12,0 C 11,2 C 70 % 52 % 998,4 hPa 0,0 l/m 0,0 km/h N 360 10,7 C 0,0 km/h
02.11.2019 04:00 18,2 C 11,9 C 11,2 C 70 % 52 % 998,4 hPa 0,0 l/m 0,0 km/h N 360 10,6 C 0,0 km/h
02.11.2019 03:55 18,2 C 11,9 C 11,3 C 70 % 52 % 998,6 hPa 0,0 l/m 0,0 km/h N 360 10,6 C 0,0 km/h
02.11.2019 03:50 18,4 C 11,9 C 11,2 C 70 % 52 % 998,6 hPa 0,0 l/m 0,0 km/h N 360 10,6 C 0,0 km/h
02.11.2019 03:45 18,4 C 11,9 C 11,2 C 70 % 52 % 998,6 hPa 0,0 l/m 0,0 km/h N 360 10,6 C 0,0 km/h
02.11.2019 03:40 18,4 C 11,9 C 11,2 C 70 % 52 % 998,6 hPa 0,0 l/m 0,0 km/h N 360 10,6 C 0,0 km/h
02.11.2019 03:35 18,4 C 11,9 C 11,3 C 70 % 52 % 998,8 hPa 0,0 l/m 0,0 km/h N 360 10,6 C 0,0 km/h
02.11.2019 03:30 18,4 C 11,9 C 11,3 C 70 % 52 % 998,8 hPa 0,0 l/m 0,0 km/h N 360 10,6 C 0,0 km/h
02.11.2019 03:25 18,4 C 11,9 C 11,2 C 70 % 52 % 998,8 hPa 0,0 l/m 0,0 km/h N 360 10,6 C 0,0 km/h
02.11.2019 03:20 18,4 C 11,9 C 11,2 C 70 % 52 % 998,8 hPa 0,0 l/m 0,0 km/h N 360 10,6 C 0,0 km/h
02.11.2019 03:15 18,4 C 11,9 C 11,2 C 70 % 52 % 999,3 hPa 0,0 l/m 0,0 km/h N 360 10,6 C 0,0 km/h
02.11.2019 03:10 18,4 C 11,9 C 11,2 C 70 % 52 % 999,3 hPa 0,0 l/m 0,0 km/h N 360 10,6 C 0,0 km/h
02.11.2019 03:05 18,4 C 11,9 C 11,2 C 70 % 52 % 999,3 hPa 0,0 l/m 0,0 km/h N 360 10,6 C 0,0 km/h
02.11.2019 03:00 18,4 C 11,9 C 11,2 C 70 % 52 % 999,3 hPa 0,0 l/m 0,0 km/h N 360 10,6 C 0,0 km/h
02.11.2019 02:55 18,4 C 11,9 C 11,3 C 70 % 52 % 999,2 hPa 0,0 l/m 0,0 km/h N 360 10,6 C 0,0 km/h
02.11.2019 02:50 18,4 C 12,0 C 11,3 C 70 % 52 % 999,2 hPa 0,0 l/m 0,0 km/h N 360 10,7 C 0,0 km/h
02.11.2019 02:45 18,5 C 12,0 C 11,2 C 70 % 52 % 999,2 hPa 0,0 l/m 0,0 km/h N 360 10,7 C 0,0 km/h
02.11.2019 02:40 18,5 C 12,0 C 11,2 C 70 % 52 % 999,2 hPa 0,0 l/m 0,0 km/h N 360 10,7 C 0,0 km/h
02.11.2019 02:35 18,5 C 12,0 C 11,2 C 70 % 52 % 999,7 hPa 0,0 l/m 0,0 km/h N 360 10,7 C 0,0 km/h
02.11.2019 02:30 18,5 C 12,1 C 11,2 C 70 % 52 % 999,7 hPa 0,0 l/m 0,0 km/h N 360 10,8 C 0,0 km/h
02.11.2019 02:25 18,5 C 12,1 C 11,2 C 70 % 52 % 999,7 hPa 0,0 l/m 0,0 km/h N 360 10,8 C 0,0 km/h
02.11.2019 02:20 18,5 C 12,0 C 11,2 C 70 % 52 % 999,7 hPa 0,0 l/m 0,0 km/h N 360 10,7 C 0,0 km/h
02.11.2019 02:15 18,6 C 12,0 C 11,3 C 70 % 52 % 1000,1 hPa 0,0 l/m 0,0 km/h N 360 10,7 C 0,0 km/h
02.11.2019 02:10 18,6 C 12,0 C 11,3 C 70 % 52 % 1000,1 hPa 0,0 l/m 0,0 km/h N 360 10,7 C 0,0 km/h
02.11.2019 02:05 18,6 C 12,0 C 11,2 C 70 % 52 % 1000,1 hPa 0,0 l/m 0,0 km/h N 360 10,7 C 0,0 km/h
02.11.2019 02:00 18,6 C 12,0 C 11,3 C 70 % 52 % 1000,1 hPa 0,0 l/m 0,0 km/h N 360 10,7 C 0,0 km/h
02.11.2019 01:55 18,6 C 12,0 C 11,3 C 70 % 52 % 1000,4 hPa 0,0 l/m 0,0 km/h N 360 10,7 C 0,0 km/h
02.11.2019 01:50 18,6 C 12,0 C 11,3 C 70 % 52 % 1000,4 hPa 0,0 l/m 0,0 km/h N 360 10,7 C 0,0 km/h
02.11.2019 01:45 18,7 C 12,1 C 11,4 C 70 % 52 % 1000,4 hPa 0,0 l/m 0,0 km/h N 360 10,8 C 0,0 km/h
02.11.2019 01:40 18,7 C 12,1 C 11,3 C 70 % 52 % 1000,4 hPa 0,3 l/m 0,0 km/h N 360 10,8 C 0,0 km/h
02.11.2019 01:35 18,7 C 12,0 C 11,3 C 70 % 52 % 1000,6 hPa 0,2 l/m 0,0 km/h N 360 10,7 C 0,0 km/h
02.11.2019 01:30 18,8 C 12,0 C 11,3 C 70 % 52 % 1000,6 hPa 0,0 l/m 0,0 km/h N 360 10,7 C 0,0 km/h
02.11.2019 01:25 18,8 C 12,0 C 11,2 C 70 % 52 % 1000,6 hPa 0,0 l/m 0,0 km/h N 360 10,7 C 0,0 km/h
02.11.2019 01:20 18,8 C 12,1 C 11,3 C 70 % 52 % 1000,6 hPa 0,0 l/m 0,0 km/h N 360 10,8 C 0,0 km/h
02.11.2019 01:15 18,8 C 12,0 C 11,2 C 70 % 52 % 1001,0 hPa 0,0 l/m 0,0 km/h N 360 10,7 C 0,0 km/h
02.11.2019 01:10 18,8 C 12,0 C 11,3 C 70 % 52 % 1001,0 hPa 0,0 l/m 0,0 km/h N 360 10,7 C 0,0 km/h
02.11.2019 01:05 18,9 C 12,0 C 11,2 C 70 % 52 % 1001,0 hPa 0,0 l/m 0,0 km/h N 360 10,7 C 0,0 km/h
02.11.2019 01:00 18,9 C 12,0 C 11,2 C 70 % 52 % 1001,0 hPa 0,0 l/m 0,0 km/h N 360 10,7 C 0,0 km/h
02.11.2019 00:55 18,9 C 12,0 C 11,2 C 70 % 52 % 1001,2 hPa 0,0 l/m 0,0 km/h N 360 10,7 C 0,0 km/h
02.11.2019 00:50 18,9 C 12,0 C 11,2 C 70 % 52 % 1001,2 hPa 0,0 l/m 0,0 km/h N 360 10,7 C 0,0 km/h
02.11.2019 00:45 19,0 C 11,9 C 11,2 C 70 % 52 % 1001,2 hPa 0,0 l/m 0,0 km/h N 360 10,6 C 0,0 km/h
02.11.2019 00:40 19,0 C 11,9 C 11,2 C 70 % 52 % 1001,2 hPa 0,0 l/m 0,0 km/h N 360 10,6 C 0,0 km/h
02.11.2019 00:35 19,0 C 11,9 C 11,2 C 70 % 52 % 1001,4 hPa 0,0 l/m 0,0 km/h N 360 10,6 C 0,0 km/h
02.11.2019 00:30 19,1 C 11,9 C 11,2 C 70 % 52 % 1001,4 hPa 0,0 l/m 0,0 km/h N 360 10,6 C 0,0 km/h
02.11.2019 00:25 19,1 C 11,9 C 11,2 C 70 % 52 % 1001,4 hPa 0,0 l/m 0,0 km/h N 360 10,6 C 0,0 km/h
02.11.2019 00:20 19,2 C 11,9 C 11,2 C 70 % 52 % 1001,4 hPa 0,0 l/m 0,0 km/h N 360 10,6 C 0,0 km/h
02.11.2019 00:15 19,2 C 11,9 C 11,2 C 70 % 52 % 1001,9 hPa 0,0 l/m 0,0 km/h N 360 10,6 C 0,0 km/h
02.11.2019 00:10 19,2 C 11,9 C 11,2 C 70 % 52 % 1001,9 hPa 0,0 l/m 0,0 km/h N 360 10,6 C 0,0 km/h
02.11.2019 00:05 19,3 C 11,9 C 11,2 C 70 % 52 % 1001,9 hPa 0,3 l/m 0,0 km/h N 360 10,6 C 0,0 km/h
02.11.2019 00:00 19,2 C 11,9 C 11,2 C 71 % 52 % 1001,9 hPa 0,2 l/m 0,0 km/h N 360 10,6 C 0,0 km/h
_ Min-Zeit 07:35 00:00 00:00 00:05 - 23:25 - 00:00 - - 22:45 00:00
Minimum _ 18,0 C 11,9 C 11,2 C 70 % - 993,3 hPa - 0,0 km/h - - 10,2 C 0,0 km/h
_ Max-Zeit 00:05 13:35 13:15 10:25 13:35 00:00 00:05 00:00 - - 12:35 00:00
Maximum _ 19,3 C 19,1 C 16,7 C 73 % 64 % 1001,9 hPa 0,3 l/m 0,0 km/h
N
- - 16,2 C 0,0 km/h
N
Durchschnitt _ 18,7 C 14,7 C 13,5 C 71 % #45 min. 997,0 hPa #1,9 l/m 0,0 km/h N - 12,4 C 0,0 km/h